sensor_id;sensor_type;location;lat;lon;timestamp;P1;durP1;ratioP1;P2;durP2;ratioP2
5871;SDS011;2962;51.312;7.378;2022-11-13T00:02:10;0.40;;;0.40;;
5871;SDS011;2962;51.312;7.378;2022-11-13T00:04:35;0.87;;;0.50;;
5871;SDS011;2962;51.312;7.378;2022-11-13T00:07:00;0.80;;;0.80;;
5871;SDS011;2962;51.312;7.378;2022-11-13T00:09:26;0.50;;;0.50;;
5871;SDS011;2962;51.312;7.378;2022-11-13T00:11:51;1.17;;;0.47;;
5871;SDS011;2962;51.312;7.378;2022-11-13T00:14:16;0.60;;;0.60;;
5871;SDS011;2962;51.312;7.378;2022-11-13T00:16:41;0.50;;;0.50;;
5871;SDS011;2962;51.312;7.378;2022-11-13T00:19:07;0.80;;;0.80;;
5871;SDS011;2962;51.312;7.378;2022-11-13T00:21:32;0.43;;;0.43;;
5871;SDS011;2962;51.312;7.378;2022-11-13T00:23:57;0.60;;;0.60;;
5871;SDS011;2962;51.312;7.378;2022-11-13T00:26:24;0.60;;;0.60;;
5871;SDS011;2962;51.312;7.378;2022-11-13T00:28:51;0.70;;;0.70;;
5871;SDS011;2962;51.312;7.378;2022-11-13T00:31:18;0.80;;;0.60;;
5871;SDS011;2962;51.312;7.378;2022-11-13T00:33:43;0.83;;;0.83;;
5871;SDS011;2962;51.312;7.378;2022-11-13T00:36:16;0.50;;;0.50;;
5871;SDS011;2962;51.312;7.378;2022-11-13T00:38:45;0.50;;;0.50;;
5871;SDS011;2962;51.312;7.378;2022-11-13T00:41:11;0.50;;;0.50;;
5871;SDS011;2962;51.312;7.378;2022-11-13T00:43:36;0.40;;;0.40;;
5871;SDS011;2962;51.312;7.378;2022-11-13T00:46:02;0.77;;;0.77;;
5871;SDS011;2962;51.312;7.378;2022-11-13T00:48:28;0.50;;;0.50;;
5871;SDS011;2962;51.312;7.378;2022-11-13T00:50:53;0.50;;;0.50;;
5871;SDS011;2962;51.312;7.378;2022-11-13T00:53:19;0.50;;;0.50;;
5871;SDS011;2962;51.312;7.378;2022-11-13T00:55:44;0.77;;;0.77;;
5871;SDS011;2962;51.312;7.378;2022-11-13T00:58:10;0.57;;;0.50;;
5871;SDS011;2962;51.312;7.378;2022-11-13T01:00:37;0.77;;;0.77;;
5871;SDS011;2962;51.312;7.378;2022-11-13T01:03:03;0.50;;;0.50;;
5871;SDS011;2962;51.312;7.378;2022-11-13T01:05:29;0.60;;;0.60;;
5871;SDS011;2962;51.312;7.378;2022-11-13T01:07:54;0.50;;;0.50;;
5871;SDS011;2962;51.312;7.378;2022-11-13T01:10:20;0.43;;;0.40;;
5871;SDS011;2962;51.312;7.378;2022-11-13T01:12:46;0.40;;;0.40;;
5871;SDS011;2962;51.312;7.378;2022-11-13T01:15:11;0.40;;;0.40;;
5871;SDS011;2962;51.312;7.378;2022-11-13T01:17:37;0.40;;;0.40;;
5871;SDS011;2962;51.312;7.378;2022-11-13T01:20:03;0.57;;;0.57;;
5871;SDS011;2962;51.312;7.378;2022-11-13T01:22:29;0.40;;;0.40;;
5871;SDS011;2962;51.312;7.378;2022-11-13T01:24:54;1.17;;;0.50;;
5871;SDS011;2962;51.312;7.378;2022-11-13T01:27:19;0.50;;;0.50;;
5871;SDS011;2962;51.312;7.378;2022-11-13T01:29:45;0.30;;;0.30;;
5871;SDS011;2962;51.312;7.378;2022-11-13T01:32:10;0.30;;;0.30;;
5871;SDS011;2962;51.312;7.378;2022-11-13T01:34:35;0.37;;;0.37;;
5871;SDS011;2962;51.312;7.378;2022-11-13T01:37:00;0.50;;;0.50;;
5871;SDS011;2962;51.312;7.378;2022-11-13T01:39:26;0.40;;;0.40;;
5871;SDS011;2962;51.312;7.378;2022-11-13T01:41:51;0.43;;;0.43;;
5871;SDS011;2962;51.312;7.378;2022-11-13T01:44:17;0.40;;;0.40;;
5871;SDS011;2962;51.312;7.378;2022-11-13T01:46:51;0.43;;;0.43;;
5871;SDS011;2962;51.312;7.378;2022-11-13T01:49:23;0.40;;;0.40;;
5871;SDS011;2962;51.312;7.378;2022-11-13T01:54:21;0.40;;;0.40;;
5871;SDS011;2962;51.312;7.378;2022-11-13T01:56:49;0.50;;;0.50;;
5871;SDS011;2962;51.312;7.378;2022-11-13T01:59:23;0.40;;;0.40;;
5871;SDS011;2962;51.312;7.378;2022-11-13T02:01:53;0.50;;;0.50;;
5871;SDS011;2962;51.312;7.378;2022-11-13T02:04:19;0.50;;;0.50;;
5871;SDS011;2962;51.312;7.378;2022-11-13T02:06:47;0.30;;;0.30;;
5871;SDS011;2962;51.312;7.378;2022-11-13T02:09:16;0.47;;;0.47;;
5871;SDS011;2962;51.312;7.378;2022-11-13T02:11:45;0.40;;;0.40;;
5871;SDS011;2962;51.312;7.378;2022-11-13T02:14:10;0.40;;;0.40;;
5871;SDS011;2962;51.312;7.378;2022-11-13T02:16:37;0.40;;;0.40;;
5871;SDS011;2962;51.312;7.378;2022-11-13T02:19:06;0.40;;;0.40;;
5871;SDS011;2962;51.312;7.378;2022-11-13T02:24:35;0.40;;;0.40;;
5871;SDS011;2962;51.312;7.378;2022-11-13T02:27:04;0.40;;;0.40;;
5871;SDS011;2962;51.312;7.378;2022-11-13T02:29:32;0.50;;;0.50;;
5871;SDS011;2962;51.312;7.378;2022-11-13T02:31:57;0.40;;;0.40;;
5871;SDS011;2962;51.312;7.378;2022-11-13T02:34:22;0.33;;;0.33;;
5871;SDS011;2962;51.312;7.378;2022-11-13T02:36:48;0.57;;;0.57;;
5871;SDS011;2962;51.312;7.378;2022-11-13T02:39:14;0.40;;;0.40;;
5871;SDS011;2962;51.312;7.378;2022-11-13T02:41:39;0.37;;;0.37;;
5871;SDS011;2962;51.312;7.378;2022-11-13T02:44:05;0.50;;;0.50;;
5871;SDS011;2962;51.312;7.378;2022-11-13T02:46:31;0.43;;;0.43;;
5871;SDS011;2962;51.312;7.378;2022-11-13T02:48:57;0.47;;;0.47;;
5871;SDS011;2962;51.312;7.378;2022-11-13T02:51:22;1.40;;;0.40;;
5871;SDS011;2962;51.312;7.378;2022-11-13T02:53:48;0.70;;;0.70;;
5871;SDS011;2962;51.312;7.378;2022-11-13T02:56:13;0.60;;;0.60;;
5871;SDS011;2962;51.312;7.378;2022-11-13T02:58:39;0.40;;;0.40;;
5871;SDS011;2962;51.312;7.378;2022-11-13T03:01:04;0.30;;;0.30;;
5871;SDS011;2962;51.312;7.378;2022-11-13T03:03:30;0.30;;;0.30;;
5871;SDS011;2962;51.312;7.378;2022-11-13T03:05:55;0.30;;;0.30;;
5871;SDS011;2962;51.312;7.378;2022-11-13T03:08:21;0.70;;;0.70;;
5871;SDS011;2962;51.312;7.378;2022-11-13T03:10:49;0.27;;;0.27;;
5871;SDS011;2962;51.312;7.378;2022-11-13T03:13:17;0.37;;;0.30;;
5871;SDS011;2962;51.312;7.378;2022-11-13T03:15:43;0.40;;;0.40;;
5871;SDS011;2962;51.312;7.378;2022-11-13T03:18:08;0.40;;;0.40;;
5871;SDS011;2962;51.312;7.378;2022-11-13T03:20:36;0.60;;;0.60;;
5871;SDS011;2962;51.312;7.378;2022-11-13T03:23:03;0.30;;;0.30;;
5871;SDS011;2962;51.312;7.378;2022-11-13T03:25:29;0.30;;;0.30;;
5871;SDS011;2962;51.312;7.378;2022-11-13T03:27:54;0.40;;;0.40;;
5871;SDS011;2962;51.312;7.378;2022-11-13T03:30:19;0.80;;;0.30;;
5871;SDS011;2962;51.312;7.378;2022-11-13T03:32:45;0.50;;;0.50;;
5871;SDS011;2962;51.312;7.378;2022-11-13T03:35:10;0.40;;;0.40;;
5871;SDS011;2962;51.312;7.378;2022-11-13T03:37:35;0.60;;;0.60;;
5871;SDS011;2962;51.312;7.378;2022-11-13T03:40:01;0.50;;;0.50;;
5871;SDS011;2962;51.312;7.378;2022-11-13T03:42:26;0.50;;;0.50;;
5871;SDS011;2962;51.312;7.378;2022-11-13T03:44:51;1.37;;;0.40;;
5871;SDS011;2962;51.312;7.378;2022-11-13T03:47:16;0.40;;;0.40;;
5871;SDS011;2962;51.312;7.378;2022-11-13T03:49:42;0.40;;;0.40;;
5871;SDS011;2962;51.312;7.378;2022-11-13T03:52:07;0.27;;;0.27;;
5871;SDS011;2962;51.312;7.378;2022-11-13T03:54:32;0.37;;;0.37;;
5871;SDS011;2962;51.312;7.378;2022-11-13T03:56:58;0.30;;;0.30;;
5871;SDS011;2962;51.312;7.378;2022-11-13T03:59:23;0.30;;;0.30;;
5871;SDS011;2962;51.312;7.378;2022-11-13T04:01:48;0.30;;;0.30;;
5871;SDS011;2962;51.312;7.378;2022-11-13T04:04:14;0.30;;;0.30;;
5871;SDS011;2962;51.312;7.378;2022-11-13T04:06:39;0.43;;;0.43;;
5871;SDS011;2962;51.312;7.378;2022-11-13T04:09:05;0.40;;;0.40;;
5871;SDS011;2962;51.312;7.378;2022-11-13T04:11:30;0.40;;;0.40;;
5871;SDS011;2962;51.312;7.378;2022-11-13T04:13:56;0.30;;;0.30;;
5871;SDS011;2962;51.312;7.378;2022-11-13T04:16:21;0.47;;;0.47;;
5871;SDS011;2962;51.312;7.378;2022-11-13T04:18:46;0.40;;;0.40;;
5871;SDS011;2962;51.312;7.378;2022-11-13T04:21:12;0.27;;;0.27;;
5871;SDS011;2962;51.312;7.378;2022-11-13T04:23:37;0.30;;;0.30;;
5871;SDS011;2962;51.312;7.378;2022-11-13T04:26:02;0.30;;;0.30;;
5871;SDS011;2962;51.312;7.378;2022-11-13T04:28:28;0.30;;;0.30;;
5871;SDS011;2962;51.312;7.378;2022-11-13T04:30:53;0.30;;;0.30;;
5871;SDS011;2962;51.312;7.378;2022-11-13T04:33:19;1.40;;;0.33;;
5871;SDS011;2962;51.312;7.378;2022-11-13T04:35:45;0.40;;;0.40;;
5871;SDS011;2962;51.312;7.378;2022-11-13T04:38:11;0.30;;;0.30;;
5871;SDS011;2962;51.312;7.378;2022-11-13T04:40:37;1.07;;;0.30;;
5871;SDS011;2962;51.312;7.378;2022-11-13T04:43:03;0.30;;;0.30;;
5871;SDS011;2962;51.312;7.378;2022-11-13T04:45:28;0.30;;;0.30;;
5871;SDS011;2962;51.312;7.378;2022-11-13T04:47:54;0.50;;;0.50;;
5871;SDS011;2962;51.312;7.378;2022-11-13T04:50:19;0.40;;;0.40;;
5871;SDS011;2962;51.312;7.378;2022-11-13T04:52:45;0.30;;;0.30;;
5871;SDS011;2962;51.312;7.378;2022-11-13T04:55:10;0.40;;;0.40;;
5871;SDS011;2962;51.312;7.378;2022-11-13T04:57:36;0.30;;;0.30;;
5871;SDS011;2962;51.312;7.378;2022-11-13T05:00:03;0.40;;;0.40;;
5871;SDS011;2962;51.312;7.378;2022-11-13T05:02:30;0.40;;;0.40;;
5871;SDS011;2962;51.312;7.378;2022-11-13T05:04:56;0.80;;;0.80;;
5871;SDS011;2962;51.312;7.378;2022-11-13T05:07:22;1.40;;;1.40;;
5871;SDS011;2962;51.312;7.378;2022-11-13T05:09:47;1.60;;;1.60;;
5871;SDS011;2962;51.312;7.378;2022-11-13T05:12:12;1.33;;;1.30;;
5871;SDS011;2962;51.312;7.378;2022-11-13T05:14:38;0.80;;;0.80;;
5871;SDS011;2962;51.312;7.378;2022-11-13T05:17:05;0.50;;;0.50;;
5871;SDS011;2962;51.312;7.378;2022-11-13T05:19:31;0.60;;;0.60;;
5871;SDS011;2962;51.312;7.378;2022-11-13T05:21:57;0.40;;;0.40;;
5871;SDS011;2962;51.312;7.378;2022-11-13T05:24:23;0.30;;;0.30;;
5871;SDS011;2962;51.312;7.378;2022-11-13T05:26:49;0.60;;;0.60;;
5871;SDS011;2962;51.312;7.378;2022-11-13T05:29:14;3.60;;;0.60;;
5871;SDS011;2962;51.312;7.378;2022-11-13T05:31:40;0.77;;;0.77;;
5871;SDS011;2962;51.312;7.378;2022-11-13T05:34:05;0.30;;;0.30;;
5871;SDS011;2962;51.312;7.378;2022-11-13T05:36:31;0.50;;;0.50;;
5871;SDS011;2962;51.312;7.378;2022-11-13T05:38:56;7.20;;;0.40;;
5871;SDS011;2962;51.312;7.378;2022-11-13T05:41:22;0.40;;;0.40;;
5871;SDS011;2962;51.312;7.378;2022-11-13T05:43:48;0.40;;;0.40;;
5871;SDS011;2962;51.312;7.378;2022-11-13T05:46:14;0.40;;;0.40;;
5871;SDS011;2962;51.312;7.378;2022-11-13T05:48:42;0.20;;;0.20;;
5871;SDS011;2962;51.312;7.378;2022-11-13T05:51:09;0.40;;;0.40;;
5871;SDS011;2962;51.312;7.378;2022-11-13T05:53:36;0.57;;;0.50;;
5871;SDS011;2962;51.312;7.378;2022-11-13T05:56:02;0.30;;;0.30;;
5871;SDS011;2962;51.312;7.378;2022-11-13T05:58:29;0.30;;;0.30;;
5871;SDS011;2962;51.312;7.378;2022-11-13T06:01:11;0.40;;;0.40;;
5871;SDS011;2962;51.312;7.378;2022-11-13T06:03:37;0.30;;;0.30;;
5871;SDS011;2962;51.312;7.378;2022-11-13T06:06:03;0.33;;;0.33;;
5871;SDS011;2962;51.312;7.378;2022-11-13T06:08:29;0.73;;;0.73;;
5871;SDS011;2962;51.312;7.378;2022-11-13T06:11:03;2.10;;;1.10;;
5871;SDS011;2962;51.312;7.378;2022-11-13T06:13:30;1.90;;;1.90;;
5871;SDS011;2962;51.312;7.378;2022-11-13T06:16:03;0.93;;;0.93;;
5871;SDS011;2962;51.312;7.378;2022-11-13T06:18:33;1.40;;;1.40;;
5871;SDS011;2962;51.312;7.378;2022-11-13T06:21:04;0.60;;;0.60;;
5871;SDS011;2962;51.312;7.378;2022-11-13T06:23:32;0.40;;;0.40;;
5871;SDS011;2962;51.312;7.378;2022-11-13T06:26:00;0.40;;;0.40;;
5871;SDS011;2962;51.312;7.378;2022-11-13T06:28:26;0.50;;;0.50;;
5871;SDS011;2962;51.312;7.378;2022-11-13T06:30:51;0.40;;;0.40;;
5871;SDS011;2962;51.312;7.378;2022-11-13T06:33:17;0.33;;;0.33;;
5871;SDS011;2962;51.312;7.378;2022-11-13T06:35:42;0.40;;;0.40;;
5871;SDS011;2962;51.312;7.378;2022-11-13T06:38:07;0.30;;;0.30;;
5871;SDS011;2962;51.312;7.378;2022-11-13T06:40:32;0.30;;;0.30;;
5871;SDS011;2962;51.312;7.378;2022-11-13T06:42:58;0.30;;;0.30;;
5871;SDS011;2962;51.312;7.378;2022-11-13T06:45:23;0.43;;;0.43;;
5871;SDS011;2962;51.312;7.378;2022-11-13T06:47:48;0.40;;;0.40;;
5871;SDS011;2962;51.312;7.378;2022-11-13T06:50:14;0.30;;;0.30;;
5871;SDS011;2962;51.312;7.378;2022-11-13T06:52:39;0.27;;;0.27;;
5871;SDS011;2962;51.312;7.378;2022-11-13T06:55:04;0.30;;;0.30;;
5871;SDS011;2962;51.312;7.378;2022-11-13T06:57:30;1.03;;;0.40;;
5871;SDS011;2962;51.312;7.378;2022-11-13T06:59:55;0.30;;;0.30;;
5871;SDS011;2962;51.312;7.378;2022-11-13T07:02:20;0.30;;;0.30;;
5871;SDS011;2962;51.312;7.378;2022-11-13T07:04:45;0.30;;;0.30;;
5871;SDS011;2962;51.312;7.378;2022-11-13T07:07:11;0.30;;;0.30;;
5871;SDS011;2962;51.312;7.378;2022-11-13T07:09:36;0.40;;;0.40;;
5871;SDS011;2962;51.312;7.378;2022-11-13T07:12:01;0.40;;;0.40;;
5871;SDS011;2962;51.312;7.378;2022-11-13T07:14:26;0.40;;;0.40;;
5871;SDS011;2962;51.312;7.378;2022-11-13T07:16:52;0.70;;;0.70;;
5871;SDS011;2962;51.312;7.378;2022-11-13T07:19:17;0.93;;;0.93;;
5871;SDS011;2962;51.312;7.378;2022-11-13T07:21:42;0.40;;;0.40;;
5871;SDS011;2962;51.312;7.378;2022-11-13T07:24:08;0.30;;;0.30;;
5871;SDS011;2962;51.312;7.378;2022-11-13T07:26:33;0.30;;;0.30;;
5871;SDS011;2962;51.312;7.378;2022-11-13T07:28:58;0.30;;;0.30;;
5871;SDS011;2962;51.312;7.378;2022-11-13T07:31:23;0.20;;;0.20;;
5871;SDS011;2962;51.312;7.378;2022-11-13T07:33:49;0.20;;;0.20;;
5871;SDS011;2962;51.312;7.378;2022-11-13T07:36:15;0.20;;;0.20;;
5871;SDS011;2962;51.312;7.378;2022-11-13T07:38:41;0.77;;;0.77;;
5871;SDS011;2962;51.312;7.378;2022-11-13T07:41:06;0.80;;;0.80;;
5871;SDS011;2962;51.312;7.378;2022-11-13T07:43:32;0.30;;;0.30;;
5871;SDS011;2962;51.312;7.378;2022-11-13T07:45:58;0.63;;;0.63;;
5871;SDS011;2962;51.312;7.378;2022-11-13T07:48:24;0.90;;;0.90;;
5871;SDS011;2962;51.312;7.378;2022-11-13T07:50:51;0.50;;;0.50;;
5871;SDS011;2962;51.312;7.378;2022-11-13T07:53:17;0.40;;;0.40;;
5871;SDS011;2962;51.312;7.378;2022-11-13T07:55:44;0.30;;;0.30;;
5871;SDS011;2962;51.312;7.378;2022-11-13T07:58:09;0.70;;;0.40;;
5871;SDS011;2962;51.312;7.378;2022-11-13T08:00:35;0.50;;;0.50;;
5871;SDS011;2962;51.312;7.378;2022-11-13T08:03:07;0.40;;;0.40;;
5871;SDS011;2962;51.312;7.378;2022-11-13T08:05:35;0.97;;;0.30;;
5871;SDS011;2962;51.312;7.378;2022-11-13T08:08:00;0.40;;;0.40;;
5871;SDS011;2962;51.312;7.378;2022-11-13T08:10:26;0.87;;;0.30;;
5871;SDS011;2962;51.312;7.378;2022-11-13T08:12:59;0.37;;;0.30;;
5871;SDS011;2962;51.312;7.378;2022-11-13T08:15:26;0.40;;;0.40;;
5871;SDS011;2962;51.312;7.378;2022-11-13T08:17:53;0.87;;;0.30;;
5871;SDS011;2962;51.312;7.378;2022-11-13T08:20:21;0.43;;;0.43;;
5871;SDS011;2962;51.312;7.378;2022-11-13T08:22:47;0.63;;;0.63;;
5871;SDS011;2962;51.312;7.378;2022-11-13T08:25:12;0.40;;;0.40;;
5871;SDS011;2962;51.312;7.378;2022-11-13T08:27:38;0.30;;;0.30;;
5871;SDS011;2962;51.312;7.378;2022-11-13T08:30:03;0.57;;;0.57;;
5871;SDS011;2962;51.312;7.378;2022-11-13T08:32:29;1.03;;;0.50;;
5871;SDS011;2962;51.312;7.378;2022-11-13T08:34:54;1.50;;;1.50;;
5871;SDS011;2962;51.312;7.378;2022-11-13T08:37:19;1.20;;;1.20;;
5871;SDS011;2962;51.312;7.378;2022-11-13T08:39:45;0.40;;;0.40;;
5871;SDS011;2962;51.312;7.378;2022-11-13T08:42:10;0.60;;;0.60;;
5871;SDS011;2962;51.312;7.378;2022-11-13T08:44:35;0.37;;;0.37;;
5871;SDS011;2962;51.312;7.378;2022-11-13T08:47:00;0.43;;;0.43;;
5871;SDS011;2962;51.312;7.378;2022-11-13T08:49:26;0.30;;;0.30;;
5871;SDS011;2962;51.312;7.378;2022-11-13T08:51:51;0.50;;;0.50;;
5871;SDS011;2962;51.312;7.378;2022-11-13T08:54:16;1.93;;;0.60;;
5871;SDS011;2962;51.312;7.378;2022-11-13T08:56:42;0.50;;;0.50;;
5871;SDS011;2962;51.312;7.378;2022-11-13T08:59:08;0.57;;;0.57;;
5871;SDS011;2962;51.312;7.378;2022-11-13T09:01:33;0.50;;;0.50;;
5871;SDS011;2962;51.312;7.378;2022-11-13T09:03:59;0.60;;;0.60;;
5871;SDS011;2962;51.312;7.378;2022-11-13T09:06:24;0.30;;;0.30;;
5871;SDS011;2962;51.312;7.378;2022-11-13T09:08:49;0.50;;;0.50;;
5871;SDS011;2962;51.312;7.378;2022-11-13T09:11:15;0.40;;;0.40;;
5871;SDS011;2962;51.312;7.378;2022-11-13T09:13:40;0.93;;;0.60;;
5871;SDS011;2962;51.312;7.378;2022-11-13T09:16:05;0.50;;;0.50;;
5871;SDS011;2962;51.312;7.378;2022-11-13T09:18:31;0.60;;;0.60;;
5871;SDS011;2962;51.312;7.378;2022-11-13T09:20:59;0.70;;;0.70;;
5871;SDS011;2962;51.312;7.378;2022-11-13T09:23:25;0.50;;;0.50;;
5871;SDS011;2962;51.312;7.378;2022-11-13T09:25:51;0.50;;;0.50;;
5871;SDS011;2962;51.312;7.378;2022-11-13T09:28:16;0.40;;;0.40;;
5871;SDS011;2962;51.312;7.378;2022-11-13T09:30:41;0.40;;;0.40;;
5871;SDS011;2962;51.312;7.378;2022-11-13T09:33:06;0.80;;;0.80;;
5871;SDS011;2962;51.312;7.378;2022-11-13T09:35:34;0.37;;;0.37;;
5871;SDS011;2962;51.312;7.378;2022-11-13T09:38:00;0.60;;;0.60;;
5871;SDS011;2962;51.312;7.378;2022-11-13T09:43:05;0.50;;;0.50;;
5871;SDS011;2962;51.312;7.378;2022-11-13T09:45:43;0.47;;;0.33;;
5871;SDS011;2962;51.312;7.378;2022-11-13T09:50:50;0.63;;;0.63;;
5871;SDS011;2962;51.312;7.378;2022-11-13T09:53:16;0.60;;;0.60;;
5871;SDS011;2962;51.312;7.378;2022-11-13T10:04:25;0.63;;;0.63;;
5871;SDS011;2962;51.312;7.378;2022-11-13T10:07:03;0.60;;;0.60;;
5871;SDS011;2962;51.312;7.378;2022-11-13T10:12:37;0.40;;;0.40;;
5871;SDS011;2962;51.312;7.378;2022-11-13T10:15:04;0.60;;;0.60;;
5871;SDS011;2962;51.312;7.378;2022-11-13T10:17:37;0.60;;;0.60;;
5871;SDS011;2962;51.312;7.378;2022-11-13T10:20:12;0.40;;;0.40;;
5871;SDS011;2962;51.312;7.378;2022-11-13T10:22:49;0.53;;;0.53;;
5871;SDS011;2962;51.312;7.378;2022-11-13T10:25:24;0.60;;;0.60;;
5871;SDS011;2962;51.312;7.378;2022-11-13T10:27:53;0.70;;;0.70;;
5871;SDS011;2962;51.312;7.378;2022-11-13T10:30:20;0.47;;;0.47;;
5871;SDS011;2962;51.312;7.378;2022-11-13T10:32:46;0.57;;;0.57;;
5871;SDS011;2962;51.312;7.378;2022-11-13T10:38:31;0.60;;;0.60;;
5871;SDS011;2962;51.312;7.378;2022-11-13T10:41:12;0.53;;;0.53;;
5871;SDS011;2962;51.312;7.378;2022-11-13T10:43:49;0.50;;;0.50;;
5871;SDS011;2962;51.312;7.378;2022-11-13T10:46:44;0.60;;;0.60;;
5871;SDS011;2962;51.312;7.378;2022-11-13T10:49:17;0.53;;;0.53;;
5871;SDS011;2962;51.312;7.378;2022-11-13T10:51:44;0.57;;;0.57;;
5871;SDS011;2962;51.312;7.378;2022-11-13T10:54:20;1.40;;;0.40;;
5871;SDS011;2962;51.312;7.378;2022-11-13T10:57:01;0.60;;;0.60;;
5871;SDS011;2962;51.312;7.378;2022-11-13T10:59:39;0.60;;;0.60;;
5871;SDS011;2962;51.312;7.378;2022-11-13T11:02:19;0.40;;;0.40;;
5871;SDS011;2962;51.312;7.378;2022-11-13T11:04:46;3.00;;;0.50;;
5871;SDS011;2962;51.312;7.378;2022-11-13T11:07:13;1.20;;;0.47;;
5871;SDS011;2962;51.312;7.378;2022-11-13T11:09:46;0.50;;;0.50;;
5871;SDS011;2962;51.312;7.378;2022-11-13T11:12:13;0.60;;;0.60;;
5871;SDS011;2962;51.312;7.378;2022-11-13T11:18:23;0.70;;;0.70;;
5871;SDS011;2962;51.312;7.378;2022-11-13T11:26:06;0.80;;;0.80;;
5871;SDS011;2962;51.312;7.378;2022-11-13T11:31:57;0.50;;;0.50;;
5871;SDS011;2962;51.312;7.378;2022-11-13T11:34:30;0.77;;;0.77;;
5871;SDS011;2962;51.312;7.378;2022-11-13T11:37:11;0.40;;;0.40;;
5871;SDS011;2962;51.312;7.378;2022-11-13T11:39:45;0.43;;;0.43;;
5871;SDS011;2962;51.312;7.378;2022-11-13T11:47:29;0.50;;;0.50;;
5871;SDS011;2962;51.312;7.378;2022-11-13T11:49:57;0.60;;;0.60;;
5871;SDS011;2962;51.312;7.378;2022-11-13T11:57:57;0.80;;;0.80;;
5871;SDS011;2962;51.312;7.378;2022-11-13T12:00:38;0.70;;;0.70;;
5871;SDS011;2962;51.312;7.378;2022-11-13T12:03:28;0.60;;;0.60;;
5871;SDS011;2962;51.312;7.378;2022-11-13T12:06:04;0.73;;;0.73;;
5871;SDS011;2962;51.312;7.378;2022-11-13T12:08:44;0.60;;;0.60;;
5871;SDS011;2962;51.312;7.378;2022-11-13T12:11:25;1.30;;;0.67;;
5871;SDS011;2962;51.312;7.378;2022-11-13T12:14:00;0.63;;;0.63;;
5871;SDS011;2962;51.312;7.378;2022-11-13T12:16:44;0.80;;;0.80;;
5871;SDS011;2962;51.312;7.378;2022-11-13T12:19:24;0.50;;;0.50;;
5871;SDS011;2962;51.312;7.378;2022-11-13T12:22:18;0.57;;;0.57;;
5871;SDS011;2962;51.312;7.378;2022-11-13T12:28:05;0.83;;;0.83;;
5871;SDS011;2962;51.312;7.378;2022-11-13T12:30:45;0.60;;;0.60;;
5871;SDS011;2962;51.312;7.378;2022-11-13T12:35:58;1.00;;;0.73;;
5871;SDS011;2962;51.312;7.378;2022-11-13T12:41:08;0.63;;;0.63;;
5871;SDS011;2962;51.312;7.378;2022-11-13T12:43:48;1.07;;;0.57;;
5871;SDS011;2962;51.312;7.378;2022-11-13T12:46:21;0.83;;;0.83;;
5871;SDS011;2962;51.312;7.378;2022-11-13T12:48:58;0.73;;;0.73;;
5871;SDS011;2962;51.312;7.378;2022-11-13T12:51:24;0.80;;;0.80;;
5871;SDS011;2962;51.312;7.378;2022-11-13T12:54:03;0.80;;;0.80;;
5871;SDS011;2962;51.312;7.378;2022-11-13T12:56:30;0.70;;;0.70;;
5871;SDS011;2962;51.312;7.378;2022-11-13T12:59:04;0.70;;;0.70;;
5871;SDS011;2962;51.312;7.378;2022-11-13T13:01:48;0.90;;;0.90;;
5871;SDS011;2962;51.312;7.378;2022-11-13T13:15:58;0.77;;;0.77;;
5871;SDS011;2962;51.312;7.378;2022-11-13T13:23:28;3.33;;;3.30;;
5871;SDS011;2962;51.312;7.378;2022-11-13T13:28:40;2.07;;;2.07;;
5871;SDS011;2962;51.312;7.378;2022-11-13T13:31:20;2.27;;;2.17;;
5871;SDS011;2962;51.312;7.378;2022-11-13T13:36:52;1.70;;;1.60;;
5871;SDS011;2962;51.312;7.378;2022-11-13T13:39:31;1.67;;;1.67;;
5871;SDS011;2962;51.312;7.378;2022-11-13T13:42:11;1.73;;;1.73;;
5871;SDS011;2962;51.312;7.378;2022-11-13T13:50:03;2.07;;;1.90;;
5871;SDS011;2962;51.312;7.378;2022-11-13T13:52:31;1.90;;;1.80;;
5871;SDS011;2962;51.312;7.378;2022-11-13T13:55:00;2.00;;;2.00;;
5871;SDS011;2962;51.312;7.378;2022-11-13T13:57:28;2.03;;;1.93;;
5871;SDS011;2962;51.312;7.378;2022-11-13T13:59:54;2.30;;;2.10;;
5871;SDS011;2962;51.312;7.378;2022-11-13T14:02:21;1.90;;;1.90;;
5871;SDS011;2962;51.312;7.378;2022-11-13T14:04:48;1.60;;;1.60;;
5871;SDS011;2962;51.312;7.378;2022-11-13T14:09:46;1.80;;;1.80;;
5871;SDS011;2962;51.312;7.378;2022-11-13T14:12:19;2.00;;;2.00;;
5871;SDS011;2962;51.312;7.378;2022-11-13T14:14:46;1.90;;;1.90;;
5871;SDS011;2962;51.312;7.378;2022-11-13T14:17:20;2.40;;;2.30;;
5871;SDS011;2962;51.312;7.378;2022-11-13T14:19:53;1.50;;;1.50;;
5871;SDS011;2962;51.312;7.378;2022-11-13T14:22:24;1.90;;;1.90;;
5871;SDS011;2962;51.312;7.378;2022-11-13T14:24:51;1.67;;;1.67;;
5871;SDS011;2962;51.312;7.378;2022-11-13T14:27:22;1.77;;;1.73;;
5871;SDS011;2962;51.312;7.378;2022-11-13T14:29:57;2.23;;;2.00;;
5871;SDS011;2962;51.312;7.378;2022-11-13T14:32:32;2.50;;;2.30;;
5871;SDS011;2962;51.312;7.378;2022-11-13T14:35:02;2.53;;;2.43;;
5871;SDS011;2962;51.312;7.378;2022-11-13T14:40:29;2.23;;;2.17;;
5871;SDS011;2962;51.312;7.378;2022-11-13T14:42:57;2.17;;;2.17;;
5871;SDS011;2962;51.312;7.378;2022-11-13T14:45:29;1.87;;;1.73;;
5871;SDS011;2962;51.312;7.378;2022-11-13T14:48:03;2.13;;;2.13;;
5871;SDS011;2962;51.312;7.378;2022-11-13T14:50:53;2.17;;;2.07;;
5871;SDS011;2962;51.312;7.378;2022-11-13T14:53:36;1.63;;;1.63;;
5871;SDS011;2962;51.312;7.378;2022-11-13T14:56:04;1.50;;;1.40;;
5871;SDS011;2962;51.312;7.378;2022-11-13T14:58:38;1.90;;;1.90;;
5871;SDS011;2962;51.312;7.378;2022-11-13T15:03:39;4.83;;;2.00;;
5871;SDS011;2962;51.312;7.378;2022-11-13T15:06:07;1.60;;;1.60;;
5871;SDS011;2962;51.312;7.378;2022-11-13T15:08:38;1.80;;;1.70;;
5871;SDS011;2962;51.312;7.378;2022-11-13T15:11:03;1.70;;;1.70;;
5871;SDS011;2962;51.312;7.378;2022-11-13T15:13:28;1.83;;;1.73;;
5871;SDS011;2962;51.312;7.378;2022-11-13T15:15:54;2.17;;;2.17;;
5871;SDS011;2962;51.312;7.378;2022-11-13T15:18:19;3.23;;;2.27;;
5871;SDS011;2962;51.312;7.378;2022-11-13T15:20:44;3.70;;;2.00;;
5871;SDS011;2962;51.312;7.378;2022-11-13T15:23:13;2.33;;;2.33;;
5871;SDS011;2962;51.312;7.378;2022-11-13T15:25:40;2.53;;;2.37;;
5871;SDS011;2962;51.312;7.378;2022-11-13T15:28:06;2.17;;;2.07;;
5871;SDS011;2962;51.312;7.378;2022-11-13T15:30:32;2.03;;;2.03;;
5871;SDS011;2962;51.312;7.378;2022-11-13T15:32:57;3.47;;;2.10;;
5871;SDS011;2962;51.312;7.378;2022-11-13T15:35:24;2.40;;;2.00;;
5871;SDS011;2962;51.312;7.378;2022-11-13T15:37:49;1.60;;;1.60;;
5871;SDS011;2962;51.312;7.378;2022-11-13T15:40:15;2.50;;;2.40;;
5871;SDS011;2962;51.312;7.378;2022-11-13T15:42:41;2.40;;;2.30;;
5871;SDS011;2962;51.312;7.378;2022-11-13T15:45:12;1.80;;;1.80;;
5871;SDS011;2962;51.312;7.378;2022-11-13T15:47:39;2.27;;;2.27;;
5871;SDS011;2962;51.312;7.378;2022-11-13T15:50:05;1.90;;;1.87;;
5871;SDS011;2962;51.312;7.378;2022-11-13T15:52:31;2.60;;;2.40;;
5871;SDS011;2962;51.312;7.378;2022-11-13T15:54:59;4.10;;;2.33;;
5871;SDS011;2962;51.312;7.378;2022-11-13T15:57:27;2.00;;;2.00;;
5871;SDS011;2962;51.312;7.378;2022-11-13T15:59:53;2.87;;;2.13;;
5871;SDS011;2962;51.312;7.378;2022-11-13T16:02:19;2.70;;;2.60;;
5871;SDS011;2962;51.312;7.378;2022-11-13T16:04:45;2.30;;;2.30;;
5871;SDS011;2962;51.312;7.378;2022-11-13T16:07:31;1.90;;;1.90;;
5871;SDS011;2962;51.312;7.378;2022-11-13T16:09:56;2.30;;;2.20;;
5871;SDS011;2962;51.312;7.378;2022-11-13T16:12:21;2.70;;;2.43;;
5871;SDS011;2962;51.312;7.378;2022-11-13T16:14:46;2.70;;;2.60;;
5871;SDS011;2962;51.312;7.378;2022-11-13T16:17:15;2.70;;;2.60;;
5871;SDS011;2962;51.312;7.378;2022-11-13T16:19:44;3.63;;;3.40;;
5871;SDS011;2962;51.312;7.378;2022-11-13T16:22:22;3.63;;;3.43;;
5871;SDS011;2962;51.312;7.378;2022-11-13T16:24:48;2.80;;;2.70;;
5871;SDS011;2962;51.312;7.378;2022-11-13T16:27:15;7.73;;;3.40;;
5871;SDS011;2962;51.312;7.378;2022-11-13T16:29:50;3.17;;;3.00;;
5871;SDS011;2962;51.312;7.378;2022-11-13T16:32:16;3.20;;;3.00;;
5871;SDS011;2962;51.312;7.378;2022-11-13T16:34:42;2.40;;;2.40;;
5871;SDS011;2962;51.312;7.378;2022-11-13T16:37:14;3.07;;;3.07;;
5871;SDS011;2962;51.312;7.378;2022-11-13T16:39:43;2.60;;;2.50;;
5871;SDS011;2962;51.312;7.378;2022-11-13T16:42:09;3.27;;;3.10;;
5871;SDS011;2962;51.312;7.378;2022-11-13T16:44:36;3.83;;;3.63;;
5871;SDS011;2962;51.312;7.378;2022-11-13T16:47:01;3.60;;;3.40;;
5871;SDS011;2962;51.312;7.378;2022-11-13T16:49:29;3.60;;;3.40;;
5871;SDS011;2962;51.312;7.378;2022-11-13T16:51:55;3.30;;;3.03;;
5871;SDS011;2962;51.312;7.378;2022-11-13T16:54:20;2.63;;;2.63;;